Time;durP1;ratioP1;P1;durP2;ratioP2;P2;SDS_P1;SDS_P2;PMS_P1;PMS_P2;Temp;Humidity;BMP_temperature;BMP_pressure;BME280_temperature;BME280_humidity;BME280_pressure;Samples;Min_cycle;Max_cycle;Signal;HPM_P1;HPM_P2
2022/12/17 13:06:13;;;;;;;49.17;27.93;;;1.00;99.90;;;;;;5057903;28;20247;-32
2022/12/17 13:08:40;;;;;;;51.50;27.93;;;1.00;99.90;;;;;;5074594;28;20237;-32
2022/12/17 13:11:29;;;;;;;50.33;28.27;;;1.00;99.90;;;;;;5072548;28;20252;-33
2022/12/17 13:14:08;;;;;;;45.83;26.33;;;1.00;99.90;;;;;;5087197;28;20357;-33
2022/12/17 13:16:52;;;;;;;49.80;26.87;;;1.00;99.90;;;;;;5053868;28;20229;-32
2022/12/17 13:19:30;;;;;;;47.40;26.83;;;1.00;99.90;;;;;;5057938;28;20206;-32
2022/12/17 13:22:13;;;;;;;49.60;27.20;;;1.00;99.90;;;;;;5053090;28;20294;-32
2022/12/17 13:24:52;;;;;;;50.37;27.53;;;1.00;99.90;;;;;;5051314;28;20224;-32
2022/12/17 13:27:34;;;;;;;49.97;27.57;;;1.00;99.90;;;;;;5054259;28;20637;-32
2022/12/17 13:30:21;;;;;;;46.50;28.07;;;1.10;99.90;;;;;;5045212;28;20200;-32
2022/12/17 13:33:06;;;;;;;52.47;28.70;;;1.00;99.90;;;;;;5084247;28;20218;-32
2022/12/17 13:35:38;;;;;;;52.20;28.90;;;1.00;99.90;;;;;;5054335;28;20258;-32
2022/12/17 13:38:29;;;;;;;49.37;27.53;;;1.00;99.90;;;;;;5059783;28;20588;-32
2022/12/17 13:41:08;;;;;;;55.63;29.43;;;1.00;99.90;;;;;;5055759;28;20223;-33
2022/12/17 13:43:50;;;;;;;52.90;28.87;;;1.00;99.90;;;;;;5064596;28;20235;-32
2022/12/17 13:46:17;;;;;;;53.77;29.93;;;1.00;99.90;;;;;;5052913;28;20587;-32
2022/12/17 13:48:52;;;;;;;55.17;29.40;;;1.00;99.90;;;;;;5065204;28;20211;-32
2022/12/17 13:51:26;;;;;;;54.47;30.57;;;1.00;99.90;;;;;;5061551;28;20266;-32
2022/12/17 13:53:58;;;;;;;55.13;31.37;;;1.00;99.90;;;;;;5062030;28;20314;-32
2022/12/17 13:56:33;;;;;;;53.73;28.53;;;1.00;99.90;;;;;;5063989;28;20206;-32
2022/12/17 13:59:02;;;;;;;55.70;29.73;;;1.00;99.90;;;;;;5065589;28;20431;-33
2022/12/17 14:01:52;;;;;;;57.07;29.37;;;1.10;99.90;;;;;;5044931;28;20219;-32
2022/12/17 14:04:25;;;;;;;60.60;30.93;;;1.10;99.90;;;;;;5056013;28;20207;-32
2022/12/17 14:06:56;;;;;;;67.80;31.07;;;1.10;99.90;;;;;;5050306;28;20200;-32
2022/12/17 14:09:37;;;;;;;53.87;29.17;;;1.10;99.90;;;;;;5053699;28;20525;-30
2022/12/17 14:12:22;;;;;;;54.50;29.10;;;1.10;99.90;;;;;;5062334;28;20199;-30
2022/12/17 14:14:58;;;;;;;57.67;30.13;;;1.10;99.90;;;;;;5062387;28;20306;-31
2022/12/17 14:17:31;;;;;;;57.23;30.20;;;1.10;99.90;;;;;;5060489;28;20254;-30
2022/12/17 14:20:05;;;;;;;55.33;29.83;;;1.10;99.90;;;;;;5047313;28;20242;-31
2022/12/17 14:22:38;;;;;;;56.97;28.93;;;1.10;99.90;;;;;;5060503;28;21125;-30
2022/12/17 14:25:18;;;;;;;52.10;28.27;;;1.10;99.90;;;;;;5047001;28;20204;-31
2022/12/17 14:27:57;;;;;;;52.23;28.20;;;1.10;99.90;;;;;;5049135;28;20294;-31
2022/12/17 14:30:36;;;;;;;56.30;29.93;;;1.10;99.90;;;;;;5055168;28;20342;-30
2022/12/17 14:33:37;;;;;;;59.83;30.87;;;1.10;99.90;;;;;;5052025;28;20773;-30
2022/12/17 14:36:06;;;;;;;57.13;30.07;;;1.00;99.90;;;;;;5051601;28;20273;-31
2022/12/17 14:38:35;;;;;;;67.37;32.40;;;1.00;99.90;;;;;;5048238;28;21332;-31
2022/12/17 14:43:59;;;;;;;64.10;31.60;;;1.00;99.90;;;;;;5065261;28;20670;-31
2022/12/17 14:46:32;;;;;;;61.30;31.57;;;1.00;99.90;;;;;;5058482;28;20200;-31
2022/12/17 14:49:05;;;;;;;66.50;32.60;;;1.00;99.90;;;;;;5057322;28;20210;-31
2022/12/17 14:51:40;;;;;;;60.37;31.47;;;1.00;99.90;;;;;;5058791;28;20718;-31
2022/12/17 14:54:18;;;;;;;66.17;32.80;;;1.00;99.90;;;;;;5052455;28;20211;-31
2022/12/17 14:56:48;;;;;;;59.07;30.60;;;0.90;99.90;;;;;;5054507;28;20204;-30
2022/12/17 14:59:42;;;;;;;63.60;32.87;;;0.90;99.90;;;;;;5044341;28;20645;-30
2022/12/17 15:02:30;;;;;;;63.23;31.97;;;0.90;99.90;;;;;;5055100;28;20222;-30
2022/12/17 15:05:00;;;;;;;65.40;33.00;;;0.90;99.90;;;;;;5050334;28;20203;-30
2022/12/17 15:07:33;;;;;;;64.10;30.73;;;0.90;99.90;;;;;;5049955;28;20208;-30
2022/12/17 15:10:09;;;;;;;63.20;29.80;;;0.90;99.90;;;;;;5047924;28;20215;-30
2022/12/17 15:12:44;;;;;;;61.87;30.50;;;0.90;99.90;;;;;;5044606;28;20215;-30
2022/12/17 15:15:13;;;;;;;63.40;31.37;;;0.90;99.90;;;;;;5047911;28;20305;-30
2022/12/17 15:17:43;;;;;;;61.03;30.63;;;0.80;99.90;;;;;;5040146;28;20691;-30
2022/12/17 15:20:19;;;;;;;62.67;32.30;;;0.80;99.90;;;;;;5040794;28;20437;-30
2022/12/17 15:22:49;;;;;;;61.40;31.23;;;0.80;99.90;;;;;;5044577;28;20367;-30
2022/12/17 15:25:21;;;;;;;66.37;32.87;;;0.80;99.90;;;;;;5042522;28;20246;-30
2022/12/17 15:27:48;;;;;;;69.27;33.90;;;0.80;99.90;;;;;;5046338;28;20599;-30
2022/12/17 15:30:18;;;;;;;68.63;33.33;;;0.80;99.90;;;;;;5056928;28;20782;-30
2022/12/17 15:32:48;;;;;;;75.83;34.23;;;0.80;99.90;;;;;;5057818;28;20203;-30
2022/12/17 15:35:18;;;;;;;69.80;33.23;;;0.80;99.90;;;;;;5050853;28;20219;-30
2022/12/17 15:37:47;;;;;;;68.77;33.70;;;0.80;99.90;;;;;;5062710;28;20250;-30
2022/12/17 15:40:14;;;;;;;74.07;36.13;;;0.80;99.90;;;;;;5056272;28;20192;-30
2022/12/17 15:45:32;;;;;;;67.43;32.43;;;0.70;99.90;;;;;;5059803;28;20203;-30
2022/12/17 15:47:59;;;;;;;64.67;32.20;;;0.70;99.90;;;;;;5049948;28;20269;-30
2022/12/17 15:50:29;;;;;;;66.33;31.00;;;0.70;99.90;;;;;;5054550;28;20561;-30
2022/12/17 15:53:01;;;;;;;67.23;32.10;;;0.70;99.90;;;;;;5054959;28;20268;-29
2022/12/17 15:55:30;;;;;;;66.23;30.60;;;0.70;99.90;;;;;;5051286;28;20616;-30
2022/12/17 15:57:58;;;;;;;67.30;31.03;;;0.70;99.90;;;;;;5055984;28;20323;-29
2022/12/17 16:00:25;;;;;;;65.33;31.63;;;0.70;99.90;;;;;;5046356;28;20224;-29
2022/12/17 16:02:54;;;;;;;63.37;30.83;;;0.60;99.90;;;;;;5043140;28;20321;-30
2022/12/17 16:05:27;;;;;;;65.43;32.13;;;0.60;99.90;;;;;;5050024;28;20207;-29
2022/12/17 16:08:00;;;;;;;63.50;30.67;;;0.60;99.90;;;;;;5050206;28;20214;-30
2022/12/17 16:10:28;;;;;;;65.40;31.53;;;0.60;99.90;;;;;;5060494;28;20212;-30
2022/12/17 16:13:00;;;;;;;69.30;30.90;;;0.60;99.90;;;;;;5064018;28;20249;-29
2022/12/17 16:15:27;;;;;;;61.43;30.30;;;0.60;99.90;;;;;;5047824;28;20200;-30
2022/12/17 16:17:57;;;;;;;62.33;31.37;;;0.60;99.90;;;;;;5052038;28;20305;-30
2022/12/17 16:20:26;;;;;;;58.23;29.30;;;0.60;99.90;;;;;;5053554;28;20220;-30
2022/12/17 16:22:55;;;;;;;61.13;29.90;;;0.60;99.90;;;;;;5064013;28;20188;-30
2022/12/17 16:25:23;;;;;;;65.53;29.33;;;0.60;99.90;;;;;;5054634;28;20207;-30
2022/12/17 16:27:52;;;;;;;64.67;31.57;;;0.60;99.90;;;;;;5066323;28;20208;-30
2022/12/17 16:30:19;;;;;;;59.30;29.47;;;0.60;99.90;;;;;;5061754;28;20592;-30
2022/12/17 16:32:49;;;;;;;61.87;29.13;;;0.60;99.90;;;;;;5049612;28;20201;-29
2022/12/17 16:35:18;;;;;;;58.73;30.07;;;0.60;99.90;;;;;;5054850;28;20204;-30
2022/12/17 16:37:48;;;;;;;57.37;28.57;;;0.50;99.90;;;;;;5067007;28;20528;-30
2022/12/17 16:40:17;;;;;;;58.97;29.00;;;0.50;99.90;;;;;;5066512;28;20241;-30
2022/12/17 16:42:47;;;;;;;55.57;26.37;;;0.50;99.90;;;;;;5068279;28;20282;-30
2022/12/17 16:45:16;;;;;;;53.83;26.83;;;0.50;99.90;;;;;;5051514;28;20220;-30
2022/12/17 16:47:46;;;;;;;55.07;27.60;;;0.50;99.90;;;;;;5059304;28;20195;-30
2022/12/17 16:50:15;;;;;;;57.63;28.50;;;0.50;99.90;;;;;;5048614;28;20319;-30
2022/12/17 16:52:42;;;;;;;57.57;28.77;;;0.50;99.90;;;;;;5047771;28;20216;-30
2022/12/17 16:55:09;;;;;;;57.70;29.27;;;0.50;99.90;;;;;;5049446;28;20212;-30
2022/12/17 16:57:37;;;;;;;57.57;29.17;;;0.50;99.90;;;;;;5067362;28;20287;-30
2022/12/17 17:00:04;;;;;;;53.07;27.50;;;0.50;99.90;;;;;;5067504;28;20235;-30
2022/12/17 17:02:36;;;;;;;63.43;29.37;;;0.50;99.90;;;;;;5052326;28;20215;-30
2022/12/17 17:05:08;;;;;;;64.47;30.20;;;0.40;99.90;;;;;;5048307;28;20718;-30
2022/12/17 17:07:35;;;;;;;58.60;28.70;;;0.40;99.90;;;;;;5058956;28;20512;-30
2022/12/17 17:10:05;;;;;;;58.10;29.67;;;0.40;99.90;;;;;;5046876;28;20200;-30
2022/12/17 17:12:33;;;;;;;58.10;28.90;;;0.40;99.90;;;;;;5049140;28;20220;-30
2022/12/17 17:15:02;;;;;;;59.97;29.57;;;0.40;99.90;;;;;;5058483;28;20207;-30
2022/12/17 17:17:29;;;;;;;52.17;27.13;;;0.40;99.90;;;;;;5046829;28;20203;-30
2022/12/17 17:20:17;;;;;;;51.27;26.53;;;0.40;99.90;;;;;;5051863;28;20216;-30
2022/12/17 17:22:44;;;;;;;52.87;27.53;;;0.40;99.90;;;;;;5054535;28;20240;-30
2022/12/17 17:25:11;;;;;;;54.13;27.93;;;0.30;99.90;;;;;;5061894;28;20755;-30
2022/12/17 17:27:41;;;;;;;51.60;26.43;;;0.30;99.90;;;;;;5066507;28;20227;-30
2022/12/17 17:30:08;;;;;;;47.70;25.30;;;0.30;99.90;;;;;;5064911;28;20218;-30
2022/12/17 17:32:35;;;;;;;52.63;26.50;;;0.30;99.90;;;;;;5059768;28;20645;-30
2022/12/17 17:35:04;;;;;;;48.03;25.13;;;0.30;99.90;;;;;;5060848;28;20199;-30
2022/12/17 17:37:34;;;;;;;49.53;25.80;;;0.30;99.90;;;;;;5059330;28;20235;-30
2022/12/17 17:40:03;;;;;;;48.53;25.37;;;0.20;99.90;;;;;;5057761;28;20451;-30
2022/12/17 17:42:33;;;;;;;48.57;25.53;;;0.20;99.90;;;;;;5064404;28;20227;-30
2022/12/17 17:45:05;;;;;;;47.93;26.37;;;0.20;99.90;;;;;;5048222;28;20254;-30
2022/12/17 17:47:35;;;;;;;49.83;26.27;;;0.20;99.90;;;;;;5050863;28;20299;-30
2022/12/17 17:50:02;;;;;;;52.70;28.17;;;0.20;99.90;;;;;;5062461;28;20255;-30
2022/12/17 17:52:29;;;;;;;51.73;27.00;;;0.20;99.90;;;;;;5062011;28;20290;-30
2022/12/17 17:54:59;;;;;;;56.20;28.07;;;0.20;99.90;;;;;;5057289;28;20633;-30
2022/12/17 17:57:28;;;;;;;58.63;28.90;;;0.10;99.90;;;;;;5049037;28;20591;-30
2022/12/17 18:00:00;;;;;;;54.73;28.10;;;0.10;99.90;;;;;;5045747;28;20224;-30
2022/12/17 18:02:27;;;;;;;52.23;27.20;;;0.10;99.90;;;;;;5045128;28;20303;-30
2022/12/17 18:04:59;;;;;;;51.47;26.77;;;0.10;99.90;;;;;;5046138;28;20212;-30
2022/12/17 18:07:26;;;;;;;48.07;26.40;;;0.10;99.90;;;;;;5048922;28;20207;-31
2022/12/17 18:09:59;;;;;;;50.90;27.73;;;0.10;99.90;;;;;;5057574;28;20212;-31
2022/12/17 18:15:15;;;;;;;53.27;27.83;;;0.00;99.90;;;;;;5050588;28;20310;-31
2022/12/17 18:17:50;;;;;;;57.67;28.30;;;0.00;99.90;;;;;;5048214;28;20211;-31
2022/12/17 18:20:17;;;;;;;55.63;27.63;;;0.00;99.90;;;;;;5059642;28;20238;-31
2022/12/17 18:22:47;;;;;;;51.17;25.83;;;0.00;99.90;;;;;;5065313;28;20208;-31
2022/12/17 18:25:16;;;;;;;51.17;26.47;;;0.00;99.90;;;;;;5049097;28;20247;-31
2022/12/17 18:27:51;;;;;;;48.23;25.93;;;0.00;99.90;;;;;;5048178;28;20204;-31
2022/12/17 18:30:21;;;;;;;50.70;26.03;;;-0.10;99.90;;;;;;5050771;28;20266;-31
2022/12/17 18:32:48;;;;;;;54.07;26.97;;;-0.10;99.90;;;;;;5056051;28;20204;-31
2022/12/17 18:35:18;;;;;;;54.20;26.43;;;-0.10;99.90;;;;;;5048531;28;20224;-32
2022/12/17 18:37:45;;;;;;;51.53;25.00;;;-0.10;99.90;;;;;;5048313;28;20299;-31
2022/12/17 18:40:14;;;;;;;50.20;25.27;;;-0.20;99.90;;;;;;5051117;28;20335;-31
2022/12/17 18:45:30;;;;;;;47.80;25.20;;;-0.20;99.90;;;;;;5044354;28;20319;-31
2022/12/17 18:48:02;;;;;;;50.80;25.00;;;-0.20;99.90;;;;;;5045226;28;20671;-31
2022/12/17 18:50:39;;;;;;;56.57;27.47;;;-0.20;99.90;;;;;;5043977;28;20235;-31
2022/12/17 18:53:06;;;;;;;53.00;27.33;;;-0.30;99.90;;;;;;5045320;28;20276;-31
2022/12/17 18:55:39;;;;;;;51.33;26.00;;;-0.20;99.90;;;;;;5057858;28;20207;-31
2022/12/17 18:58:07;;;;;;;51.03;24.77;;;-0.20;99.90;;;;;;5061487;28;20289;-31
2022/12/17 19:00:37;;;;;;;48.10;24.83;;;-0.30;99.90;;;;;;5047223;28;20306;-31
2022/12/17 19:03:05;;;;;;;47.23;23.53;;;-0.30;99.90;;;;;;5046159;28;20322;-31
2022/12/17 19:05:32;;;;;;;46.50;23.17;;;-0.30;99.90;;;;;;5046634;28;20212;-31
2022/12/17 19:07:59;;;;;;;46.57;23.83;;;-0.30;99.90;;;;;;5051915;28;21308;-31
2022/12/17 19:10:27;;;;;;;48.43;24.30;;;-0.30;99.90;;;;;;5052329;28;20204;-31
2022/12/17 19:12:56;;;;;;;43.80;24.27;;;-0.40;99.90;;;;;;5061010;28;20198;-31
2022/12/17 19:15:25;;;;;;;43.60;22.63;;;-0.40;99.90;;;;;;5045214;28;20683;-31
2022/12/17 19:17:55;;;;;;;46.60;23.60;;;-0.40;99.90;;;;;;5044810;28;20709;-31
2022/12/17 19:20:25;;;;;;;43.10;22.47;;;-0.40;99.90;;;;;;5055114;28;20227;-31
2022/12/17 19:22:54;;;;;;;45.33;23.13;;;-0.40;99.90;;;;;;5048458;28;20289;-31
2022/12/17 19:25:26;;;;;;;43.47;22.33;;;-0.40;99.90;;;;;;5053297;28;20285;-31
2022/12/17 19:27:56;;;;;;;41.73;22.67;;;-0.50;99.90;;;;;;5060823;28;20677;-31
2022/12/17 19:30:23;;;;;;;42.43;21.13;;;-0.50;99.90;;;;;;5064274;28;20223;-29
2022/12/17 19:32:50;;;;;;;40.60;22.00;;;-0.50;99.90;;;;;;5054078;28;20280;-29
2022/12/17 19:35:17;;;;;;;40.97;21.87;;;-0.50;99.90;;;;;;5055245;28;20242;-29
2022/12/17 19:37:49;;;;;;;39.57;21.83;;;-0.60;99.90;;;;;;5061605;28;20572;-31
2022/12/17 19:40:18;;;;;;;42.87;22.83;;;-0.60;99.90;;;;;;5063989;28;20660;-30
2022/12/17 19:42:48;;;;;;;42.47;22.57;;;-0.60;99.90;;;;;;5065057;28;20211;-30
2022/12/17 19:45:18;;;;;;;41.70;22.50;;;-0.60;99.90;;;;;;5059104;28;20311;-30
2022/12/17 19:47:45;;;;;;;37.93;21.80;;;-0.60;99.90;;;;;;5061869;28;20203;-30
2022/12/17 19:50:13;;;;;;;43.70;23.17;;;-0.70;99.90;;;;;;5064323;28;20657;-30
2022/12/17 19:52:42;;;;;;;46.13;24.20;;;-0.70;99.90;;;;;;5062324;28;20257;-30
2022/12/17 19:55:12;;;;;;;43.10;24.33;;;-0.70;99.90;;;;;;5053961;28;20200;-30
2022/12/17 19:57:39;;;;;;;42.03;24.73;;;-0.70;99.90;;;;;;5064983;28;20257;-29
2022/12/17 20:00:09;;;;;;;46.23;24.70;;;-0.80;99.90;;;;;;5063845;28;20219;-30
2022/12/17 20:02:38;;;;;;;45.33;24.97;;;-0.80;99.90;;;;;;5052995;28;20541;-31
2022/12/17 20:05:06;;;;;;;43.47;24.70;;;-0.80;99.90;;;;;;5058947;28;20282;-30
2022/12/17 20:07:36;;;;;;;47.70;26.37;;;-0.80;99.90;;;;;;5066500;28;20207;-30
2022/12/17 20:10:06;;;;;;;44.77;24.67;;;-0.80;99.90;;;;;;5067732;28;20215;-30
2022/12/17 20:12:33;;;;;;;47.80;25.47;;;-0.80;99.90;;;;;;5067724;28;20261;-30
2022/12/17 20:15:00;;;;;;;44.17;24.47;;;-0.80;99.90;;;;;;5064640;28;20204;-30
2022/12/17 20:17:27;;;;;;;44.40;25.53;;;-0.90;99.90;;;;;;5065496;28;20230;-30
2022/12/17 20:19:55;;;;;;;44.30;24.77;;;-0.90;99.90;;;;;;5067036;28;20310;-30
2022/12/17 20:22:24;;;;;;;46.13;25.23;;;-0.90;99.90;;;;;;5068174;28;20221;-30
2022/12/17 20:24:52;;;;;;;45.23;25.30;;;-0.90;99.90;;;;;;5060626;28;20241;-30
2022/12/17 20:27:21;;;;;;;48.30;26.33;;;-1.00;99.90;;;;;;5067472;28;20666;-30
2022/12/17 20:29:48;;;;;;;43.30;23.73;;;-1.00;99.90;;;;;;5062908;28;20231;-30
2022/12/17 20:32:18;;;;;;;50.00;26.20;;;-1.00;99.90;;;;;;5055118;28;20216;-30
2022/12/17 20:34:48;;;;;;;49.03;26.67;;;-1.00;99.90;;;;;;5060757;28;20232;-30
2022/12/17 20:37:17;;;;;;;51.27;26.77;;;-1.00;99.90;;;;;;5064859;28;20246;-30
2022/12/17 20:39:47;;;;;;;50.43;26.73;;;-1.10;99.90;;;;;;5065460;28;20758;-30
2022/12/17 20:42:17;;;;;;;48.83;26.77;;;-1.10;99.90;;;;;;5057112;28;20197;-30
2022/12/17 20:44:47;;;;;;;52.60;28.43;;;-1.10;99.90;;;;;;5051543;28;20209;-30
2022/12/17 20:47:19;;;;;;;44.37;25.17;;;-1.10;99.90;;;;;;5067442;28;20202;-30
2022/12/17 20:49:47;;;;;;;48.70;26.83;;;-1.10;99.90;;;;;;5061508;28;20837;-30
2022/12/17 20:52:16;;;;;;;50.07;26.53;;;-1.10;99.90;;;;;;5048400;28;20351;-30
2022/12/17 20:54:43;;;;;;;50.13;27.83;;;-1.10;99.90;;;;;;5046653;28;20682;-30
2022/12/17 20:57:15;;;;;;;44.67;24.93;;;-1.20;99.90;;;;;;5057025;28;20219;-30
2022/12/17 20:59:42;;;;;;;48.83;25.83;;;-1.20;99.90;;;;;;5058655;28;20643;-30
2022/12/17 21:02:15;;;;;;;48.47;26.63;;;-1.10;99.90;;;;;;5056294;28;20283;-30
2022/12/17 21:04:42;;;;;;;51.83;28.03;;;-1.20;99.90;;;;;;5075107;28;20192;-31
2022/12/17 21:07:10;;;;;;;47.63;26.93;;;-1.20;99.90;;;;;;5062441;28;20244;-30
2022/12/17 21:09:40;;;;;;;48.07;26.57;;;-1.20;99.90;;;;;;5061455;28;20229;-30
2022/12/17 21:12:11;;;;;;;47.53;25.73;;;-1.20;99.90;;;;;;5066554;28;20273;-31
2022/12/17 21:14:40;;;;;;;43.27;23.93;;;-1.20;99.90;;;;;;5063517;28;20649;-31
2022/12/17 21:17:10;;;;;;;44.27;23.13;;;-1.20;99.90;;;;;;5053970;28;20224;-31
2022/12/17 21:19:37;;;;;;;41.43;24.13;;;-1.10;99.90;;;;;;5058884;28;20243;-31
2022/12/17 21:22:07;;;;;;;44.67;25.97;;;-1.10;99.90;;;;;;5067083;28;20245;-31
2022/12/17 21:24:36;;;;;;;46.30;25.20;;;-1.10;99.90;;;;;;5060279;28;20200;-31
2022/12/17 21:27:03;;;;;;;42.40;24.87;;;-1.10;99.90;;;;;;5060852;28;20200;-31
2022/12/17 21:29:41;;;;;;;45.23;26.30;;;-1.10;99.90;;;;;;5047311;28;20223;-30
2022/12/17 21:32:10;;;;;;;44.90;25.53;;;-1.10;99.90;;;;;;5051089;28;20216;-31
2022/12/17 21:34:38;;;;;;;43.40;24.63;;;-1.10;99.90;;;;;;5057829;28;20203;-31
2022/12/17 21:37:05;;;;;;;44.40;25.87;;;-1.10;99.90;;;;;;5060519;28;20199;-31
2022/12/17 21:39:35;;;;;;;47.97;25.73;;;-1.10;99.90;;;;;;5045797;28;20224;-31
2022/12/17 21:44:48;;;;;;;46.07;25.70;;;-1.10;99.90;;;;;;5046986;28;20192;-31
2022/12/17 21:47:18;;;;;;;44.10;24.47;;;-1.10;99.90;;;;;;5056021;28;20183;-31
2022/12/17 21:49:49;;;;;;;44.77;24.87;;;-1.10;99.90;;;;;;5066366;28;20662;-31
2022/12/17 21:52:21;;;;;;;44.43;26.33;;;-1.10;99.90;;;;;;5067167;28;20285;-31
2022/12/17 21:54:48;;;;;;;46.40;26.03;;;-1.10;99.90;;;;;;5065054;28;20231;-31
2022/12/17 21:57:15;;;;;;;51.80;26.00;;;-1.10;99.90;;;;;;5058530;28;20312;-31
2022/12/17 21:59:45;;;;;;;45.27;25.20;;;-1.10;99.90;;;;;;5063200;28;20247;-31
2022/12/17 22:02:12;;;;;;;48.67;25.50;;;-1.10;99.90;;;;;;5059087;28;20634;-31
2022/12/17 22:04:39;;;;;;;42.93;23.57;;;-1.20;99.90;;;;;;5045899;28;20254;-31
2022/12/17 22:07:06;;;;;;;47.23;26.00;;;-1.20;99.90;;;;;;5048087;28;20218;-31
2022/12/17 22:09:50;;;;;;;47.33;25.83;;;-1.20;99.90;;;;;;5048159;28;20589;-31
2022/12/17 22:15:25;;;;;;;52.87;29.47;;;-1.20;99.90;;;;;;5064695;28;20220;-31
2022/12/17 22:17:58;;;;;;;46.60;25.77;;;-1.30;99.90;;;;;;5057626;28;20682;-31
2022/12/17 22:20:28;;;;;;;50.27;27.40;;;-1.30;99.90;;;;;;5051038;28;20314;-31
2022/12/17 22:22:57;;;;;;;44.77;25.40;;;-1.30;99.90;;;;;;5058455;28;20258;-31
2022/12/17 22:25:30;;;;;;;44.87;25.80;;;-1.30;99.90;;;;;;5048668;28;20594;-31
2022/12/17 22:27:57;;;;;;;45.80;24.60;;;-1.30;99.90;;;;;;5051793;28;20607;-31
2022/12/17 22:33:15;;;;;;;49.37;26.93;;;-1.30;99.90;;;;;;5065967;28;20339;-31
2022/12/17 22:36:05;;;;;;;46.53;26.47;;;-1.30;99.90;;;;;;5063179;28;20209;-31
2022/12/17 22:38:52;;;;;;;47.70;26.00;;;-1.30;99.90;;;;;;5049175;28;20308;-31
2022/12/17 22:44:48;;;;;;;43.40;26.13;;;-1.30;99.90;;;;;;5056701;28;20200;-30
2022/12/17 22:47:22;;;;;;;48.63;27.17;;;-1.30;99.90;;;;;;5071119;28;20207;-30
2022/12/17 22:49:51;;;;;;;47.40;25.37;;;-1.40;99.90;;;;;;5064837;28;20246;-30
2022/12/17 22:52:19;;;;;;;44.10;25.03;;;-1.40;99.90;;;;;;5068707;28;20297;-30
2022/12/17 22:54:46;;;;;;;43.60;25.47;;;-1.40;99.90;;;;;;5051047;28;20253;-30
2022/12/17 22:57:19;;;;;;;43.23;24.27;;;-1.40;99.90;;;;;;5059035;28;20689;-31
2022/12/17 23:00:26;;;;;;;46.63;25.43;;;-1.40;99.90;;;;;;5058084;28;20336;-30
2022/12/17 23:02:54;;;;;;;42.73;23.37;;;-1.50;99.90;;;;;;5068630;28;20231;-30
2022/12/17 23:05:22;;;;;;;43.67;24.60;;;-1.50;99.90;;;;;;5063384;28;20211;-32
2022/12/17 23:07:51;;;;;;;40.77;23.70;;;-1.50;99.90;;;;;;5057172;28;20733;-31
2022/12/17 23:10:20;;;;;;;41.90;23.03;;;-1.50;99.90;;;;;;5060115;28;20638;-31
2022/12/17 23:12:51;;;;;;;42.30;23.13;;;-1.60;99.90;;;;;;5061186;28;20238;-31
2022/12/17 23:15:35;;;;;;;42.67;23.53;;;-1.60;99.90;;;;;;5064790;28;20286;-31
2022/12/17 23:18:05;;;;;;;44.63;24.83;;;-1.60;99.90;;;;;;5056219;28;20218;-32
2022/12/17 23:20:35;;;;;;;41.63;23.47;;;-1.60;99.90;;;;;;5055431;28;20239;-31
2022/12/17 23:23:02;;;;;;;39.30;22.30;;;-1.60;99.90;;;;;;5064196;28;20647;-31
2022/12/17 23:25:34;;;;;;;39.30;22.97;;;-1.60;99.90;;;;;;5044088;28;20200;-31
2022/12/17 23:28:04;;;;;;;41.83;23.57;;;-1.60;99.90;;;;;;5058830;28;20208;-31
2022/12/17 23:30:31;;;;;;;42.43;23.07;;;-1.60;99.90;;;;;;5048959;28;20762;-31
2022/12/17 23:32:58;;;;;;;41.57;24.27;;;-1.70;99.90;;;;;;5047446;28;20203;-31
2022/12/17 23:35:28;;;;;;;40.10;23.33;;;-1.70;99.90;;;;;;5060711;28;20227;-32
2022/12/17 23:37:55;;;;;;;40.77;23.77;;;-1.70;99.90;;;;;;5049039;28;20661;-31
2022/12/17 23:40:25;;;;;;;40.83;22.60;;;-1.60;99.90;;;;;;5051633;28;20208;-31
2022/12/17 23:42:56;;;;;;;43.00;23.90;;;-1.70;99.90;;;;;;5064947;28;20264;-32
2022/12/17 23:45:23;;;;;;;43.47;23.50;;;-1.70;99.90;;;;;;5051142;28;20700;-32
2022/12/17 23:47:52;;;;;;;43.07;24.47;;;-1.70;99.90;;;;;;5054600;28;20297;-31
2022/12/17 23:50:22;;;;;;;43.67;23.23;;;-1.70;99.90;;;;;;5048012;28;20241;-32
2022/12/17 23:52:49;;;;;;;43.93;25.53;;;-1.70;99.90;;;;;;5057832;28;20262;-32
2022/12/17 23:55:16;;;;;;;45.30;25.00;;;-1.70;99.90;;;;;;5067485;28;20211;-31
2022/12/17 23:57:48;;;;;;;45.40;26.30;;;-1.80;99.90;;;;;;5067687;28;20706;-31
